createdAt,value
2018-05-10T00:00:31.371Z,11.00
2018-05-10T00:02:57.581Z,10.90
2018-05-10T00:05:23.809Z,10.90
2018-05-10T00:07:50.025Z,10.80
2018-05-10T00:10:16.260Z,10.70
2018-05-10T00:12:43.208Z,10.70
2018-05-10T00:15:10.182Z,10.70
2018-05-10T00:17:36.381Z,10.70
2018-05-10T00:20:03.377Z,10.70
2018-05-10T00:22:29.643Z,10.60
2018-05-10T00:24:56.606Z,10.80
2018-05-10T00:27:23.611Z,10.80
2018-05-10T00:29:49.806Z,10.80
2018-05-10T00:32:16.023Z,10.90
2018-05-10T00:34:42.230Z,11.00
2018-05-10T00:37:09.197Z,11.20
2018-05-10T00:39:36.152Z,11.30
2018-05-10T00:42:02.354Z,11.30
2018-05-10T00:44:29.335Z,11.50
2018-05-10T00:46:55.539Z,11.40
2018-05-10T00:49:22.501Z,11.40
2018-05-10T00:51:48.699Z,11.40
2018-05-10T00:54:21.068Z,11.50
2018-05-10T00:56:47.282Z,11.50
2018-05-10T00:59:13.484Z,11.50
2018-05-10T01:01:39.721Z,11.50
2018-05-10T01:04:05.931Z,11.50
2018-05-10T01:06:32.180Z,11.50
2018-05-10T01:08:58.408Z,11.50
2018-05-10T01:11:33.899Z,11.50
2018-05-10T01:14:00.254Z,11.40
2018-05-10T01:16:27.223Z,11.40
2018-05-10T01:18:53.419Z,11.30
2018-05-10T01:21:20.408Z,11.40
2018-05-10T01:23:46.636Z,11.30
2018-05-10T01:26:12.858Z,11.40
2018-05-10T01:28:39.077Z,11.30
2018-05-10T01:31:05.270Z,11.40
2018-05-10T01:33:31.522Z,11.30
2018-05-10T01:36:04.439Z,11.30
2018-05-10T01:38:30.658Z,11.20
2018-05-10T01:40:56.846Z,11.30
2018-05-10T01:43:23.064Z,11.30
2018-05-10T01:45:49.315Z,11.20
2018-05-10T01:48:15.577Z,11.20
2018-05-10T01:50:41.805Z,11.20
2018-05-10T01:53:08.032Z,11.20
2018-05-10T01:55:34.258Z,11.10
2018-05-10T01:58:00.486Z,11.00
2018-05-10T02:00:27.460Z,11.00
2018-05-10T02:02:53.680Z,10.90
2018-05-10T02:05:19.879Z,10.90
2018-05-10T02:07:46.842Z,10.80
2018-05-10T02:10:13.044Z,10.70
2018-05-10T02:12:39.244Z,10.70
2018-05-10T02:15:05.467Z,10.60
2018-05-10T02:17:31.675Z,10.60
2018-05-10T02:19:57.906Z,10.50
2018-05-10T02:22:24.115Z,10.50
2018-05-10T02:24:51.113Z,10.40
2018-05-10T02:27:17.362Z,10.30
2018-05-10T02:29:43.628Z,10.20
2018-05-10T02:32:09.822Z,10.00
2018-05-10T02:34:36.046Z,9.70
2018-05-10T02:37:02.257Z,9.60
2018-05-10T02:39:28.478Z,9.60
2018-05-10T02:41:54.679Z,9.70
2018-05-10T02:44:20.925Z,9.80
2018-05-10T02:46:48.040Z,9.80
2018-05-10T02:49:14.986Z,9.80
2018-05-10T02:51:41.947Z,9.90
2018-05-10T02:54:08.907Z,9.90
2018-05-10T02:56:35.104Z,9.80
2018-05-10T02:59:01.386Z,9.90
2018-05-10T03:01:27.587Z,9.90
2018-05-10T03:03:54.550Z,9.80
2018-05-10T03:06:20.801Z,9.80
2018-05-10T03:08:46.998Z,9.80
2018-05-10T03:11:13.255Z,9.80
2018-05-10T03:13:39.448Z,9.80
2018-05-10T03:16:06.414Z,9.80
2018-05-10T03:18:32.630Z,9.70
2018-05-10T03:20:58.851Z,9.80
2018-05-10T03:23:25.786Z,9.90
2018-05-10T03:25:52.824Z,9.80
2018-05-10T03:28:19.045Z,9.80
2018-05-10T03:30:45.251Z,9.80
2018-05-10T03:33:11.527Z,9.80
2018-05-10T03:35:37.745Z,9.70
2018-05-10T03:38:03.976Z,9.70
2018-05-10T03:40:30.258Z,9.70
2018-05-10T03:42:57.162Z,9.60
2018-05-10T03:45:24.127Z,9.60
2018-05-10T03:47:51.066Z,9.60
2018-05-10T03:50:18.031Z,9.60
2018-05-10T03:52:44.262Z,9.50
2018-05-10T03:55:10.459Z,9.60
2018-05-10T03:57:36.686Z,9.60
2018-05-10T04:00:02.945Z,9.60
2018-05-10T04:02:35.147Z,9.60
2018-05-10T04:05:07.461Z,9.60
2018-05-10T04:07:40.634Z,9.70
2018-05-10T04:10:13.023Z,9.70
2018-05-10T04:12:39.325Z,9.80
2018-05-10T04:15:05.522Z,10.10
2018-05-10T04:17:31.766Z,10.60
2018-05-10T04:19:57.954Z,11.30
2018-05-10T04:22:24.916Z,12.80
2018-05-10T04:24:51.878Z,13.40
2018-05-10T04:27:18.094Z,13.40
2018-05-10T04:29:45.059Z,13.50
2018-05-10T04:32:11.278Z,13.40
2018-05-10T04:34:37.507Z,14.10
2018-05-10T04:37:03.739Z,14.20
2018-05-10T04:39:29.934Z,14.60
2018-05-10T04:41:56.162Z,14.90
2018-05-10T04:44:22.371Z,15.40
2018-05-10T04:46:48.611Z,15.90
2018-05-10T04:49:15.090Z,15.90
2018-05-10T04:51:41.290Z,16.10
2018-05-10T04:54:07.508Z,16.30
2018-05-10T04:56:33.727Z,16.20
2018-05-10T04:58:59.923Z,16.10
2018-05-10T05:01:26.141Z,16.20
2018-05-10T05:03:52.372Z,16.10
2018-05-10T05:06:18.613Z,16.20
2018-05-10T05:08:44.870Z,16.40
2018-05-10T05:11:11.078Z,16.40
2018-05-10T05:13:37.275Z,16.80
2018-05-10T05:16:04.234Z,16.80
2018-05-10T05:18:30.450Z,16.70
2018-05-10T05:20:57.419Z,17.20
2018-05-10T05:23:23.694Z,17.20
2018-05-10T05:25:49.910Z,17.30
2018-05-10T05:28:16.136Z,17.50
2018-05-10T05:30:42.459Z,17.70
2018-05-10T05:33:08.678Z,17.90
2018-05-10T05:35:34.959Z,18.00
2018-05-10T05:38:01.119Z,18.10
2018-05-10T05:40:27.349Z,18.20
2018-05-10T05:42:54.280Z,17.70
2018-05-10T05:45:21.241Z,17.00
2018-05-10T05:47:48.201Z,16.10
2018-05-10T05:50:14.397Z,16.00
2018-05-10T05:52:40.616Z,15.40
2018-05-10T05:55:06.821Z,15.10
2018-05-10T05:57:33.079Z,15.00
2018-05-10T05:59:59.303Z,14.90
2018-05-10T06:02:25.508Z,15.00
2018-05-10T06:04:51.726Z,15.10
2018-05-10T06:07:17.935Z,15.20
2018-05-10T06:09:44.899Z,15.30
2018-05-10T06:12:11.238Z,15.30
2018-05-10T06:14:37.439Z,15.40
2018-05-10T06:17:04.407Z,15.40
2018-05-10T06:19:30.615Z,15.40
2018-05-10T06:21:56.852Z,15.60
2018-05-10T06:24:23.078Z,15.70
2018-05-10T06:26:49.306Z,15.80
2018-05-10T06:29:15.545Z,15.70
2018-05-10T06:31:41.793Z,15.70
2018-05-10T06:34:08.087Z,15.60
2018-05-10T06:36:34.256Z,15.80
2018-05-10T06:39:00.455Z,15.90
2018-05-10T06:41:26.707Z,16.00
2018-05-10T06:43:52.923Z,16.10
2018-05-10T06:46:19.129Z,16.40
2018-05-10T06:48:46.095Z,16.80
2018-05-10T06:51:12.290Z,16.80
2018-05-10T06:53:38.518Z,17.10
2018-05-10T06:56:04.743Z,17.40
2018-05-10T06:58:30.935Z,17.20
2018-05-10T07:00:57.164Z,17.60
2018-05-10T07:03:23.399Z,17.70
2018-05-10T07:05:49.627Z,17.60
2018-05-10T07:08:15.845Z,17.60
2018-05-10T07:10:42.047Z,17.70
2018-05-10T07:13:09.020Z,18.00
2018-05-10T07:15:35.263Z,17.90
2018-05-10T07:18:01.482Z,18.20
2018-05-10T07:20:27.699Z,18.20
2018-05-10T07:22:53.900Z,18.50
2018-05-10T07:25:20.974Z,18.80
2018-05-10T07:27:47.129Z,18.80
2018-05-10T07:30:13.374Z,18.80
2018-05-10T07:32:39.620Z,18.90
2018-05-10T07:35:05.834Z,18.90
2018-05-10T07:37:32.078Z,18.90
2018-05-10T07:39:58.312Z,19.20
2018-05-10T07:42:24.548Z,19.10
2018-05-10T07:44:50.767Z,19.10
2018-05-10T07:47:17.020Z,19.30
2018-05-10T07:49:43.260Z,19.20
2018-05-10T07:52:10.237Z,19.40
2018-05-10T07:54:36.487Z,19.40
2018-05-10T07:57:02.706Z,19.40
2018-05-10T07:59:28.950Z,19.40
2018-05-10T08:01:55.223Z,19.80
2018-05-10T08:04:22.166Z,19.60
2018-05-10T08:06:49.127Z,19.60
2018-05-10T08:11:44.955Z,19.70
2018-05-10T08:14:12.097Z,19.80
2018-05-10T08:16:38.479Z,19.80
2018-05-10T08:19:04.896Z,20.10
2018-05-10T08:21:31.295Z,19.80
2018-05-10T08:23:57.702Z,20.10
2018-05-10T08:26:24.109Z,19.90
2018-05-10T08:28:50.501Z,19.80
2018-05-10T08:31:16.923Z,19.60
2018-05-10T08:33:43.297Z,19.90
2018-05-10T08:36:10.458Z,20.40
2018-05-10T08:38:36.852Z,20.30
2018-05-10T08:41:03.241Z,20.30
2018-05-10T08:43:29.643Z,20.30
2018-05-10T08:45:56.800Z,21.00
2018-05-10T08:48:23.913Z,20.70
2018-05-10T08:50:50.310Z,20.60
2018-05-10T08:53:16.783Z,19.90
2018-05-10T08:55:43.208Z,19.50
2018-05-10T08:58:09.676Z,19.90
2018-05-10T09:00:36.805Z,20.10
2018-05-10T09:03:03.262Z,20.00
2018-05-10T09:05:30.408Z,20.50
2018-05-10T09:07:57.534Z,20.00
2018-05-10T09:10:23.990Z,20.00
2018-05-10T09:12:50.405Z,19.80
2018-05-10T09:15:16.824Z,19.70
2018-05-10T09:17:43.213Z,20.00
2018-05-10T09:20:10.378Z,20.30
2018-05-10T09:22:36.830Z,20.30
2018-05-10T09:25:03.234Z,20.50
2018-05-10T09:27:30.447Z,20.70
2018-05-10T09:29:56.868Z,20.70
2018-05-10T09:32:23.271Z,20.80
2018-05-10T09:34:49.672Z,21.20
2018-05-10T09:37:16.116Z,21.20
2018-05-10T09:39:43.264Z,21.00
2018-05-10T09:42:10.233Z,20.90
2018-05-10T09:44:36.690Z,20.90
2018-05-10T09:47:03.088Z,20.90
2018-05-10T09:49:30.264Z,21.40
2018-05-10T09:51:56.692Z,21.40
2018-05-10T09:54:23.081Z,20.90
2018-05-10T09:56:49.499Z,21.10
2018-05-10T09:59:15.918Z,21.80
2018-05-10T10:01:42.128Z,21.60
2018-05-10T10:04:08.531Z,21.30
2018-05-10T10:06:35.673Z,20.70
2018-05-10T10:09:02.156Z,20.60
2018-05-10T10:11:28.604Z,20.60
2018-05-10T10:13:54.837Z,20.20
2018-05-10T10:16:21.038Z,20.10
2018-05-10T10:18:47.456Z,20.90
2018-05-10T10:21:14.579Z,21.60
2018-05-10T10:23:40.987Z,21.60
2018-05-10T10:26:07.409Z,21.60
2018-05-10T10:28:33.824Z,21.50
2018-05-10T10:31:00.241Z,21.70
2018-05-10T10:33:27.361Z,21.60
2018-05-10T10:35:53.759Z,21.60
2018-05-10T10:38:20.234Z,20.90
2018-05-10T10:40:46.446Z,20.70
2018-05-10T10:43:12.703Z,20.70
2018-05-10T10:45:38.919Z,21.40
2018-05-10T10:48:05.150Z,21.20
2018-05-10T10:50:31.387Z,20.70
2018-05-10T10:52:57.631Z,20.60
2018-05-10T10:55:23.856Z,20.90
2018-05-10T10:57:50.228Z,21.60
2018-05-10T11:00:16.735Z,22.30
2018-05-10T11:02:43.135Z,22.70
2018-05-10T11:05:09.532Z,22.40
2018-05-10T11:07:35.914Z,22.50
2018-05-10T11:10:02.316Z,22.50
2018-05-10T11:12:28.703Z,22.90
2018-05-10T11:14:55.831Z,23.10
2018-05-10T11:17:22.476Z,23.10
2018-05-10T11:19:50.773Z,22.90
2018-05-10T11:22:20.043Z,22.90
2018-05-10T11:24:48.818Z,22.80
2018-05-10T11:27:15.247Z,22.80
2018-05-10T11:29:42.337Z,22.90
2018-05-10T11:32:08.748Z,22.80
2018-05-10T11:34:35.112Z,22.50
2018-05-10T11:37:01.554Z,23.10
2018-05-10T11:39:28.715Z,22.30
2018-05-10T11:41:55.872Z,22.40
2018-05-10T11:44:23.035Z,22.30
2018-05-10T11:46:50.162Z,22.60
2018-05-10T11:49:17.277Z,23.60
2018-05-10T11:51:43.672Z,23.50
2018-05-10T11:54:10.068Z,22.90
2018-05-10T11:56:41.285Z,23.00
2018-05-10T11:59:08.913Z,22.30
2018-05-10T12:01:35.455Z,22.30
2018-05-10T12:04:02.116Z,22.80
2018-05-10T12:06:33.701Z,23.40
2018-05-10T12:09:02.203Z,23.40
2018-05-10T12:11:30.559Z,23.40
2018-05-10T12:13:59.856Z,22.40
2018-05-10T12:16:28.766Z,22.40
2018-05-10T12:18:55.213Z,22.90
2018-05-10T12:21:22.350Z,22.70
2018-05-10T12:23:48.748Z,22.60
2018-05-10T12:26:15.141Z,22.10
2018-05-10T12:28:42.239Z,22.10
2018-05-10T12:31:08.633Z,22.10
2018-05-10T12:33:35.758Z,22.50
2018-05-10T12:36:02.204Z,22.50
2018-05-10T12:38:29.363Z,21.40
2018-05-10T12:40:56.512Z,21.20
2018-05-10T12:43:23.684Z,20.90
2018-05-10T12:45:50.145Z,20.90
2018-05-10T12:48:16.562Z,20.80
2018-05-10T12:50:42.782Z,20.60
2018-05-10T12:53:09.148Z,20.60
2018-05-10T12:55:35.551Z,20.90
2018-05-10T12:58:01.974Z,21.20
2018-05-10T13:00:28.432Z,22.00
2018-05-10T13:02:54.823Z,22.50
2018-05-10T13:05:21.955Z,22.30
2018-05-10T13:07:48.328Z,22.30
2018-05-10T13:10:15.456Z,22.30
2018-05-10T13:12:41.821Z,22.20
2018-05-10T13:15:08.214Z,22.40
2018-05-10T13:17:34.600Z,22.30
2018-05-10T13:20:00.989Z,22.50
2018-05-10T13:22:28.130Z,22.40
2018-05-10T13:24:54.504Z,22.40
2018-05-10T13:27:20.966Z,22.40
2018-05-10T13:29:48.051Z,22.50
2018-05-10T13:32:14.420Z,22.50
2018-05-10T13:34:40.841Z,22.30
2018-05-10T13:37:07.229Z,22.40
2018-05-10T13:39:33.628Z,21.90
2018-05-10T13:41:59.993Z,21.40
2018-05-10T13:44:26.388Z,21.20
2018-05-10T13:46:53.517Z,21.80
2018-05-10T13:49:20.667Z,22.20
2018-05-10T13:51:47.041Z,22.20
2018-05-10T13:54:13.435Z,23.00
2018-05-10T13:56:39.836Z,22.90
2018-05-10T13:59:06.431Z,22.20
2018-05-10T14:01:32.765Z,22.40
2018-05-10T14:03:59.257Z,22.30
2018-05-10T14:06:25.778Z,22.20
2018-05-10T14:08:52.164Z,22.10
2018-05-10T14:11:19.295Z,22.00
2018-05-10T14:13:45.666Z,22.00
2018-05-10T14:16:12.072Z,21.90
2018-05-10T14:18:39.219Z,22.40
2018-05-10T14:21:06.399Z,22.40
2018-05-10T14:23:32.765Z,22.40
2018-05-10T14:25:59.144Z,22.10
2018-05-10T14:28:26.282Z,22.10
2018-05-10T14:30:52.667Z,22.10
2018-05-10T14:33:19.035Z,22.20
2018-05-10T14:35:45.400Z,21.90
2018-05-10T14:38:12.531Z,22.10
2018-05-10T14:40:38.893Z,22.10
2018-05-10T14:43:06.033Z,21.70
2018-05-10T14:45:33.008Z,21.20
2018-05-10T14:47:59.393Z,21.20
2018-05-10T14:50:26.573Z,21.20
2018-05-10T14:52:53.785Z,21.30
2018-05-10T14:55:20.137Z,21.20
2018-05-10T14:57:46.503Z,20.90
2018-05-10T15:00:12.742Z,20.90
2018-05-10T15:02:39.120Z,20.60
2018-05-10T15:05:06.263Z,21.00
2018-05-10T15:07:32.629Z,20.90
2018-05-10T15:09:59.768Z,21.40
2018-05-10T15:12:26.155Z,21.40
2018-05-10T15:14:52.611Z,21.20
2018-05-10T15:17:18.999Z,21.10
2018-05-10T15:19:46.161Z,21.20
2018-05-10T15:22:12.534Z,21.10
2018-05-10T15:24:38.933Z,21.20
2018-05-10T15:27:05.317Z,21.20
2018-05-10T15:29:31.720Z,21.20
2018-05-10T15:31:58.128Z,21.70
2018-05-10T15:34:24.515Z,21.40
2018-05-10T15:36:51.625Z,21.10
2018-05-10T15:39:18.035Z,21.00
2018-05-10T15:41:45.169Z,20.80
2018-05-10T15:44:12.303Z,20.60
2018-05-10T15:46:39.431Z,20.40
2018-05-10T15:49:05.824Z,20.40
2018-05-10T15:51:32.788Z,20.10
2018-05-10T15:53:59.015Z,20.00
2018-05-10T15:56:25.239Z,20.10
2018-05-10T15:58:51.458Z,20.20
2018-05-10T16:01:18.421Z,20.10
2018-05-10T16:03:44.639Z,20.00
2018-05-10T16:06:11.584Z,20.30
2018-05-10T16:08:38.715Z,20.30
2018-05-10T16:11:05.092Z,20.30
2018-05-10T16:13:31.540Z,20.20
2018-05-10T16:15:58.185Z,20.30
2018-05-10T16:18:24.584Z,20.20
2018-05-10T16:20:50.792Z,20.00
2018-05-10T16:23:17.759Z,19.80
2018-05-10T16:25:43.970Z,19.80
2018-05-10T16:28:10.218Z,19.80
2018-05-10T16:30:36.454Z,19.70
2018-05-10T16:33:02.667Z,19.70
2018-05-10T16:35:29.663Z,19.70
2018-05-10T16:37:55.880Z,19.70
2018-05-10T16:40:22.119Z,19.70
2018-05-10T16:42:48.347Z,19.80
2018-05-10T16:45:14.554Z,19.80
2018-05-10T16:47:40.816Z,20.40
2018-05-10T16:50:07.050Z,20.10
2018-05-10T16:52:33.314Z,19.90
2018-05-10T16:55:00.286Z,21.10
2018-05-10T16:57:27.302Z,19.80
2018-05-10T16:59:53.545Z,19.80
2018-05-10T17:02:20.523Z,19.00
2018-05-10T17:04:46.728Z,18.90
2018-05-10T17:07:13.700Z,18.60
2018-05-10T17:09:39.945Z,18.50
2018-05-10T17:12:06.182Z,18.40
2018-05-10T17:14:32.427Z,18.30
2018-05-10T17:16:58.649Z,18.30
2018-05-10T17:19:24.901Z,18.20
2018-05-10T17:21:51.906Z,17.70
2018-05-10T17:24:18.191Z,17.70
2018-05-10T17:26:45.157Z,17.50
2018-05-10T17:29:12.131Z,17.40
2018-05-10T17:31:38.379Z,17.40
2018-05-10T17:34:04.584Z,17.40
2018-05-10T17:36:30.813Z,17.30
2018-05-10T17:38:57.047Z,17.30
2018-05-10T17:41:23.284Z,17.20
2018-05-10T17:43:49.620Z,17.20
2018-05-10T17:46:15.967Z,17.20
2018-05-10T17:48:42.702Z,17.10
2018-05-10T17:51:08.954Z,17.10
2018-05-10T17:53:35.245Z,17.00
2018-05-10T17:56:01.476Z,16.90
2018-05-10T17:58:27.703Z,16.80
2018-05-10T18:00:54.388Z,16.80
2018-05-10T18:03:21.102Z,16.70
2018-05-10T18:05:47.373Z,16.70
2018-05-10T18:08:13.613Z,16.60
2018-05-10T18:10:39.832Z,16.50
2018-05-10T18:13:06.073Z,16.50
2018-05-10T18:15:33.583Z,16.40
2018-05-10T18:17:59.840Z,16.40
2018-05-10T18:20:26.082Z,16.40
2018-05-10T18:22:53.059Z,16.30
2018-05-10T18:25:20.451Z,16.30
2018-05-10T18:27:46.666Z,16.20
2018-05-10T18:30:12.973Z,16.20
2018-05-10T18:32:40.675Z,16.10
2018-05-10T18:35:06.903Z,16.00
2018-05-10T18:37:33.752Z,16.00
2018-05-10T18:40:00.880Z,15.90
2018-05-10T18:42:28.568Z,15.90
2018-05-10T18:44:55.587Z,15.80
2018-05-10T18:47:22.769Z,15.80
2018-05-10T18:49:49.824Z,15.70
2018-05-10T18:52:16.660Z,15.70
2018-05-10T18:54:43.024Z,15.70
2018-05-10T18:57:09.140Z,15.70
2018-05-10T18:59:35.364Z,15.60
2018-05-10T19:02:01.594Z,15.60
2018-05-10T19:04:27.780Z,15.60
2018-05-10T19:06:54.760Z,15.50
2018-05-10T19:09:20.954Z,15.50
2018-05-10T19:11:47.915Z,15.50
2018-05-10T19:14:14.130Z,15.40
2018-05-10T19:16:41.081Z,15.40
2018-05-10T19:19:08.264Z,15.30
2018-05-10T19:21:35.358Z,15.40
2018-05-10T19:24:02.324Z,15.30
2018-05-10T19:26:29.697Z,15.30
2018-05-10T19:28:56.771Z,15.30
2018-05-10T19:31:23.023Z,15.30
2018-05-10T19:33:49.250Z,15.20
2018-05-10T19:36:16.172Z,15.20
2018-05-10T19:38:43.836Z,15.20
2018-05-10T19:41:11.500Z,15.10
2018-05-10T19:43:37.754Z,15.10
2018-05-10T19:46:04.778Z,15.10
2018-05-10T19:48:31.040Z,15.00
2018-05-10T19:50:57.545Z,14.80
2018-05-10T19:53:23.819Z,14.70
2018-05-10T19:55:50.015Z,14.50
2018-05-10T19:58:16.227Z,14.30
2018-05-10T20:00:42.635Z,14.00
2018-05-10T20:03:09.594Z,13.50
2018-05-10T20:05:35.794Z,13.40
2018-05-10T20:08:03.305Z,13.10
2018-05-10T20:10:30.649Z,13.00
2018-05-10T20:12:56.888Z,12.90
2018-05-10T20:15:23.228Z,12.90
2018-05-10T20:17:49.471Z,12.80
2018-05-10T20:20:15.691Z,12.70
2018-05-10T20:22:43.146Z,12.60
2018-05-10T20:25:10.270Z,12.30
2018-05-10T20:27:36.797Z,12.30
2018-05-10T20:30:03.755Z,12.20
2018-05-10T20:32:30.106Z,12.20
2018-05-10T20:34:57.034Z,12.10
2018-05-10T20:37:23.251Z,12.10
2018-05-10T20:39:50.218Z,12.00
2018-05-10T20:42:16.418Z,12.00
2018-05-10T20:44:43.889Z,11.80
2018-05-10T20:47:10.461Z,11.80
2018-05-10T20:49:36.722Z,11.70
2018-05-10T20:52:02.929Z,11.60
2018-05-10T20:54:29.180Z,11.60
2018-05-10T20:56:55.791Z,11.50
2018-05-10T20:59:22.056Z,11.40
2018-05-10T21:01:48.248Z,11.40
2018-05-10T21:04:14.827Z,11.30
2018-05-10T21:06:41.007Z,11.30
2018-05-10T21:09:07.227Z,11.30
2018-05-10T21:11:33.483Z,11.30
2018-05-10T21:13:59.751Z,11.30
2018-05-10T21:16:26.449Z,11.30
2018-05-10T21:18:52.672Z,11.30
2018-05-10T21:21:19.933Z,11.30
2018-05-10T21:23:47.065Z,11.30
2018-05-10T21:26:13.337Z,11.20
2018-05-10T21:28:40.247Z,11.20
2018-05-10T21:31:06.474Z,11.20
2018-05-10T21:33:32.677Z,11.20
2018-05-10T21:35:59.639Z,11.10
2018-05-10T21:38:26.718Z,11.10
2018-05-10T21:40:52.943Z,11.10
2018-05-10T21:43:19.183Z,11.10
2018-05-10T21:45:45.399Z,11.10
2018-05-10T21:48:11.626Z,11.00
2018-05-10T21:50:37.859Z,11.00
2018-05-10T21:53:04.135Z,11.00
2018-05-10T21:55:31.266Z,11.00
2018-05-10T21:57:57.516Z,11.00
2018-05-10T22:00:34.665Z,11.00
2018-05-10T22:03:01.346Z,11.00
2018-05-10T22:05:27.575Z,11.00
2018-05-10T22:07:54.539Z,11.00
2018-05-10T22:10:21.503Z,11.00
2018-05-10T22:12:47.779Z,10.90
2018-05-10T22:15:14.023Z,11.00
2018-05-10T22:17:40.223Z,10.90
2018-05-10T22:20:06.442Z,10.90
2018-05-10T22:22:32.700Z,10.90
2018-05-10T22:24:58.886Z,10.90
2018-05-10T22:27:25.077Z,10.90
2018-05-10T22:29:51.315Z,10.80
2018-05-10T22:32:17.510Z,10.80
2018-05-10T22:34:43.738Z,10.90
2018-05-10T22:37:09.984Z,10.80
2018-05-10T22:39:36.207Z,10.80
2018-05-10T22:42:02.436Z,10.80
2018-05-10T22:44:28.748Z,10.80
2018-05-10T22:46:54.876Z,10.80
2018-05-10T22:49:21.079Z,10.80
2018-05-10T22:51:48.039Z,10.80
2018-05-10T22:54:14.268Z,10.70
2018-05-10T22:56:40.463Z,10.80
2018-05-10T22:59:06.694Z,10.80
2018-05-10T23:01:32.950Z,10.80
2018-05-10T23:03:59.191Z,10.80
2018-05-10T23:06:25.383Z,10.80
2018-05-10T23:08:51.574Z,10.80
2018-05-10T23:11:17.812Z,10.80
2018-05-10T23:13:44.002Z,10.80
2018-05-10T23:16:10.227Z,10.70
2018-05-10T23:18:36.492Z,10.70
2018-05-10T23:21:02.714Z,10.70
2018-05-10T23:23:28.916Z,10.70
2018-05-10T23:25:55.156Z,10.70
2018-05-10T23:28:21.386Z,10.70
2018-05-10T23:30:47.579Z,10.60
2018-05-10T23:33:13.800Z,10.70
2018-05-10T23:35:40.034Z,10.60
2018-05-10T23:38:06.255Z,10.60
2018-05-10T23:40:32.504Z,10.60
2018-05-10T23:42:58.715Z,10.60
2018-05-10T23:45:24.919Z,10.50
2018-05-10T23:47:51.144Z,10.50
2018-05-10T23:50:17.398Z,10.50
2018-05-10T23:52:43.595Z,10.40
2018-05-10T23:55:09.815Z,10.40
2018-05-10T23:57:36.014Z,10.40
